Terminal Aerodrome Forecast
Issued by NWS Greer, SC

Home | Current Version | Previous Version | Text Only | Print | Product List | Glossary On
Versions: 1 2 3 4 5 6 7 8 9 10 11 12
000
FTUS42 KGSP 242329
TAFGSP
TAF
KGSP 242329Z 2500/2524 13006KT P6SM FEW060
     FM250500 15004KT P6SM SCT040
     FM251000 07003KT P6SM SCT017 BKN030
     FM251300 13003KT P6SM BKN017 OVC030
     FM251700 19007KT P6SM SCT040 BKN045 PROB30 2521/2524 4SM TSRA
      BKN030CB=

USA.gov is the U.S. government's official web portal to all federal, state and local government web resources and services.